createdAt,value
2023-04-25T00:00:54.110Z,2.00
2023-04-25T00:03:22.248Z,2.28
2023-04-25T00:05:50.006Z,1.90
2023-04-25T00:08:16.776Z,3.00
2023-04-25T00:10:43.413Z,2.63
2023-04-25T00:13:12.524Z,2.60
2023-04-25T00:15:39.835Z,2.30
2023-04-25T00:18:07.431Z,2.05
2023-04-25T00:20:34.169Z,2.05
2023-04-25T00:23:00.786Z,2.40
2023-04-25T00:25:27.437Z,2.17
2023-04-25T00:27:54.068Z,2.35
2023-04-25T00:30:20.889Z,2.20
2023-04-25T00:32:47.509Z,1.92
2023-04-25T00:35:14.196Z,2.25
2023-04-25T00:37:41.143Z,2.50
2023-04-25T00:40:08.829Z,2.65
2023-04-25T00:42:37.140Z,2.17
2023-04-25T00:45:06.689Z,2.03
2023-04-25T00:47:34.278Z,2.33
2023-04-25T00:50:00.990Z,2.78
2023-04-25T00:52:27.864Z,2.03
2023-04-25T00:54:54.551Z,2.42
2023-04-25T00:57:21.301Z,2.65
2023-04-25T00:59:48.110Z,1.90
2023-04-25T01:02:14.974Z,2.65
2023-04-25T01:04:41.643Z,2.20
2023-04-25T01:07:08.256Z,1.95
2023-04-25T01:09:35.187Z,1.67
2023-04-25T01:12:02.177Z,2.20
2023-04-25T01:14:28.836Z,2.10
2023-04-25T01:16:55.630Z,2.08
2023-04-25T01:19:22.469Z,2.08
2023-04-25T01:21:49.271Z,1.80
2023-04-25T01:24:16.601Z,1.88
2023-04-25T01:26:50.849Z,2.00
2023-04-25T01:29:19.739Z,2.40
2023-04-25T01:31:47.043Z,1.65
2023-04-25T01:34:14.252Z,2.20
2023-04-25T01:36:41.532Z,2.00
2023-04-25T01:39:08.546Z,2.30
2023-04-25T01:41:38.160Z,2.05
2023-04-25T01:44:05.140Z,2.20
2023-04-25T01:46:32.083Z,1.90
2023-04-25T01:48:58.874Z,1.90
2023-04-25T01:51:25.604Z,1.88
2023-04-25T01:53:53.157Z,2.03
2023-04-25T01:56:20.116Z,1.70
2023-04-25T01:58:46.958Z,1.80
2023-04-25T02:01:13.708Z,1.90
2023-04-25T02:03:40.570Z,1.98
2023-04-25T02:06:07.357Z,2.00
2023-04-25T02:08:34.585Z,2.50
2023-04-25T02:11:01.303Z,1.70
2023-04-25T02:13:27.963Z,1.80
2023-04-25T02:15:54.633Z,1.98
2023-04-25T02:18:22.303Z,1.70
2023-04-25T02:20:49.404Z,1.80
2023-04-25T02:23:16.593Z,1.80
2023-04-25T02:25:43.356Z,1.83
2023-04-25T02:28:10.148Z,1.85
2023-04-25T02:30:37.084Z,1.80
2023-04-25T02:33:03.811Z,2.15
2023-04-25T02:35:30.556Z,1.98
2023-04-25T02:37:57.176Z,2.10
2023-04-25T02:40:23.946Z,1.92
2023-04-25T02:42:50.695Z,1.98
2023-04-25T02:45:17.308Z,1.83
2023-04-25T02:47:44.031Z,2.22
2023-04-25T02:50:12.408Z,1.55
2023-04-25T02:52:39.065Z,1.90
2023-04-25T02:55:06.395Z,1.98
2023-04-25T02:57:33.059Z,2.13
2023-04-25T02:59:59.665Z,1.95
2023-04-25T03:02:26.345Z,2.20
2023-04-25T03:04:53.628Z,2.10
2023-04-25T03:07:20.529Z,1.85
2023-04-25T03:09:47.132Z,1.83
2023-04-25T03:12:13.891Z,1.80
2023-04-25T03:14:40.590Z,2.30
2023-04-25T03:17:07.207Z,1.92
2023-04-25T03:19:33.792Z,2.10
2023-04-25T03:22:00.423Z,2.00
2023-04-25T03:24:28.147Z,1.80
2023-04-25T03:26:54.821Z,2.08
2023-04-25T03:29:25.541Z,1.70
2023-04-25T03:31:52.429Z,1.90
2023-04-25T03:34:19.140Z,1.70
2023-04-25T03:36:46.109Z,2.05
2023-04-25T03:39:12.730Z,1.80
2023-04-25T03:41:39.408Z,1.90
2023-04-25T03:44:06.060Z,1.80
2023-04-25T03:46:32.860Z,1.90
2023-04-25T03:49:00.312Z,1.90
2023-04-25T03:51:26.996Z,1.85
2023-04-25T03:53:53.780Z,3.08
2023-04-25T03:56:21.221Z,5.55
2023-04-25T03:58:47.900Z,9.13
2023-04-25T04:01:14.486Z,3.50
2023-04-25T04:03:41.306Z,2.25
2023-04-25T04:06:10.060Z,2.13
2023-04-25T04:08:36.713Z,1.80
2023-04-25T04:11:03.622Z,2.10
2023-04-25T04:13:30.905Z,2.17
2023-04-25T04:15:58.592Z,2.00
2023-04-25T04:18:25.303Z,2.00
2023-04-25T04:20:52.001Z,2.40
2023-04-25T04:23:18.607Z,3.22
2023-04-25T04:25:45.348Z,2.67
2023-04-25T04:28:12.206Z,2.80
2023-04-25T04:30:40.270Z,2.20
2023-04-25T04:33:07.153Z,1.90
2023-04-25T04:35:34.459Z,1.63
2023-04-25T04:38:01.187Z,1.95
2023-04-25T04:40:27.895Z,1.70
2023-04-25T04:42:57.481Z,1.95
2023-04-25T04:45:24.820Z,2.60
2023-04-25T04:47:51.460Z,2.20
2023-04-25T04:50:18.146Z,2.20
2023-04-25T04:52:44.843Z,1.90
2023-04-25T04:55:11.441Z,1.90
2023-04-25T04:57:39.573Z,1.92
2023-04-25T05:00:11.667Z,2.65
2023-04-25T05:02:39.636Z,2.50
2023-04-25T05:05:06.952Z,1.92
2023-04-25T05:07:33.588Z,2.03
2023-04-25T05:10:00.347Z,1.92
2023-04-25T05:12:26.989Z,1.80
2023-04-25T05:14:53.619Z,1.80
2023-04-25T05:17:20.364Z,1.85
2023-04-25T05:19:47.012Z,1.90
2023-04-25T05:22:13.637Z,1.95
2023-04-25T05:24:40.537Z,1.95
2023-04-25T05:27:07.678Z,1.67
2023-04-25T05:29:34.452Z,1.55
2023-04-25T05:32:01.191Z,1.70
2023-04-25T05:34:27.922Z,1.75
2023-04-25T05:36:54.530Z,1.70
2023-04-25T05:39:21.704Z,2.20
2023-04-25T05:41:48.420Z,1.80
2023-04-25T05:44:16.962Z,2.17
2023-04-25T05:46:43.844Z,1.92
2023-04-25T05:49:10.531Z,1.85
2023-04-25T05:51:37.188Z,1.60
2023-04-25T05:54:04.017Z,2.10
2023-04-25T05:56:30.908Z,2.00
2023-04-25T05:58:57.668Z,2.20
2023-04-25T06:01:24.527Z,1.92
2023-04-25T06:03:53.026Z,2.30
2023-04-25T06:06:20.256Z,2.50
2023-04-25T06:08:46.964Z,2.10
2023-04-25T06:11:13.741Z,3.22
2023-04-25T06:13:40.514Z,3.30
2023-04-25T06:16:07.431Z,3.25
2023-04-25T06:18:34.040Z,4.40
2023-04-25T06:21:00.766Z,3.17
2023-04-25T06:23:27.570Z,3.15
2023-04-25T06:25:54.215Z,3.72
2023-04-25T06:28:23.038Z,2.70
2023-04-25T06:30:49.653Z,2.97
2023-04-25T06:33:16.269Z,3.13
2023-04-25T06:35:43.252Z,2.97
2023-04-25T06:38:10.229Z,2.80
2023-04-25T06:40:36.898Z,2.58
2023-04-25T06:43:03.506Z,2.65
2023-04-25T06:45:30.170Z,2.40
2023-04-25T06:47:56.825Z,2.20
2023-04-25T06:50:23.605Z,2.72
2023-04-25T06:52:50.228Z,3.03
2023-04-25T06:55:17.019Z,2.53
2023-04-25T06:57:43.685Z,2.85
2023-04-25T07:00:10.742Z,2.28
2023-04-25T07:02:37.503Z,2.50
2023-04-25T07:05:05.425Z,2.63
2023-04-25T07:07:32.231Z,2.75
2023-04-25T07:09:58.841Z,3.15
2023-04-25T07:12:25.492Z,2.65
2023-04-25T07:14:52.089Z,2.28
2023-04-25T07:17:18.727Z,2.33
2023-04-25T07:19:45.862Z,2.30
2023-04-25T07:22:12.489Z,2.58
2023-04-25T07:24:39.312Z,2.17
2023-04-25T07:27:06.049Z,2.20
2023-04-25T07:29:32.870Z,2.22
2023-04-25T07:31:59.532Z,2.20
2023-04-25T07:34:26.168Z,2.03
2023-04-25T07:36:53.653Z,2.20
2023-04-25T07:39:20.310Z,2.42
2023-04-25T07:41:47.084Z,1.88
2023-04-25T07:44:13.774Z,2.85
2023-04-25T07:46:40.421Z,2.03
2023-04-25T07:49:07.019Z,2.20
2023-04-25T07:51:33.641Z,1.88
2023-04-25T07:54:00.710Z,2.03
2023-04-25T07:56:27.378Z,1.70
2023-04-25T07:58:54.257Z,2.08
2023-04-25T08:01:22.670Z,2.40
2023-04-25T08:03:49.619Z,1.90
2023-04-25T08:06:16.674Z,2.35
2023-04-25T08:08:43.399Z,2.20
2023-04-25T08:11:10.149Z,2.08
2023-04-25T08:13:36.768Z,2.40
2023-04-25T08:16:03.686Z,2.15
2023-04-25T08:18:30.424Z,2.00
2023-04-25T08:20:57.037Z,2.00
2023-04-25T08:23:24.023Z,1.90
2023-04-25T08:25:50.835Z,2.25
2023-04-25T08:28:17.432Z,2.10
2023-04-25T08:30:44.077Z,1.98
2023-04-25T08:33:11.426Z,1.70
2023-04-25T08:35:39.098Z,1.90
2023-04-25T08:38:05.796Z,1.90
2023-04-25T08:40:38.553Z,1.85
2023-04-25T08:43:06.924Z,2.00
2023-04-25T08:45:34.469Z,2.08
2023-04-25T08:48:03.419Z,2.30
2023-04-25T08:50:31.316Z,1.70
2023-04-25T08:53:05.112Z,1.73
2023-04-25T08:55:32.823Z,1.80
2023-04-25T08:58:01.795Z,2.05
2023-04-25T09:00:28.959Z,2.00
2023-04-25T09:02:56.265Z,1.75
2023-04-25T09:05:23.913Z,1.90
2023-04-25T09:07:50.862Z,1.75
2023-04-25T09:10:17.685Z,2.42
2023-04-25T09:12:44.419Z,2.17
2023-04-25T09:15:20.297Z,2.65
2023-04-25T09:17:56.349Z,2.10
2023-04-25T09:20:23.138Z,2.00
2023-04-25T09:22:49.782Z,1.77
2023-04-25T09:25:16.735Z,2.33
2023-04-25T09:27:55.258Z,2.25
2023-04-25T09:30:31.480Z,1.90
2023-04-25T09:33:04.955Z,1.98
2023-04-25T09:35:40.298Z,1.65
2023-04-25T09:38:11.401Z,1.83
2023-04-25T09:40:46.407Z,2.13
2023-04-25T09:43:25.885Z,1.40
2023-04-25T09:45:56.762Z,1.77
2023-04-25T09:48:26.391Z,1.55
2023-04-25T09:51:10.177Z,1.55
2023-04-25T09:53:38.837Z,1.95
2023-04-25T09:56:08.644Z,1.70
2023-04-25T09:58:36.692Z,1.80
2023-04-25T10:01:12.746Z,1.80
2023-04-25T10:03:41.387Z,1.77
2023-04-25T10:06:20.312Z,1.88
2023-04-25T10:08:52.177Z,1.85
2023-04-25T10:11:19.340Z,1.60
2023-04-25T10:13:47.057Z,1.60
2023-04-25T10:16:14.588Z,1.50
2023-04-25T10:18:41.773Z,1.50
2023-04-25T10:21:08.588Z,1.60
2023-04-25T10:23:36.255Z,1.80
2023-04-25T10:26:03.178Z,1.80
2023-04-25T10:28:29.878Z,1.85
2023-04-25T10:31:00.105Z,1.80
2023-04-25T10:33:41.964Z,1.90
2023-04-25T10:36:15.950Z,1.90
2023-04-25T10:38:47.037Z,1.48
2023-04-25T10:41:14.687Z,1.67
2023-04-25T10:43:43.615Z,1.85
2023-04-25T10:46:27.475Z,1.83
2023-04-25T10:48:59.427Z,1.60
2023-04-25T10:51:47.329Z,1.70
2023-04-25T10:54:21.125Z,1.77
2023-04-25T10:56:50.160Z,1.90
2023-04-25T10:59:19.350Z,1.73
2023-04-25T11:01:48.203Z,1.90
2023-04-25T11:04:31.511Z,1.40
2023-04-25T11:09:39.081Z,1.52
2023-04-25T11:12:06.367Z,1.90
2023-04-25T11:14:33.033Z,2.00
2023-04-25T11:17:01.068Z,1.60
2023-04-25T11:19:29.200Z,1.67
2023-04-25T11:22:00.921Z,1.70
2023-04-25T11:24:32.408Z,1.60
2023-04-25T11:26:59.884Z,1.70
2023-04-25T11:29:34.407Z,1.88
2023-04-25T11:32:02.477Z,1.30
2023-04-25T11:34:36.714Z,1.48
2023-04-25T11:37:04.870Z,1.55
2023-04-25T11:39:31.830Z,1.20
2023-04-25T11:41:59.317Z,1.20
2023-04-25T11:44:27.893Z,1.40
2023-04-25T11:46:54.492Z,1.30
2023-04-25T11:49:22.223Z,1.50
2023-04-25T11:51:49.718Z,1.30
2023-04-25T11:54:17.032Z,1.08
2023-04-25T11:56:47.129Z,1.35
2023-04-25T11:59:14.407Z,1.15
2023-04-25T12:01:50.227Z,1.25
2023-04-25T12:04:18.308Z,1.20
2023-04-25T12:06:49.732Z,1.25
2023-04-25T12:09:25.148Z,1.13
2023-04-25T12:11:56.383Z,1.48
2023-04-25T12:14:25.253Z,1.25
2023-04-25T12:16:54.463Z,1.60
2023-04-25T12:19:21.639Z,1.50
2023-04-25T12:21:57.845Z,1.60
2023-04-25T12:24:28.908Z,1.60
2023-04-25T12:27:06.648Z,1.20
2023-04-25T12:29:48.541Z,1.50
2023-04-25T12:32:16.979Z,1.10
2023-04-25T12:34:43.719Z,1.75
2023-04-25T12:37:10.671Z,2.17
2023-04-25T12:39:37.607Z,1.20
2023-04-25T12:42:06.204Z,1.55
2023-04-25T12:44:35.190Z,1.10
2023-04-25T12:47:02.132Z,1.67
2023-04-25T12:49:28.896Z,1.50
2023-04-25T12:51:55.670Z,1.40
2023-04-25T12:54:22.353Z,1.48
2023-04-25T12:56:49.017Z,1.70
2023-04-25T12:59:15.680Z,1.30
2023-04-25T13:01:42.349Z,1.40
2023-04-25T13:04:09.182Z,1.30
2023-04-25T13:06:36.000Z,1.70
2023-04-25T13:09:02.869Z,1.38
2023-04-25T13:13:57.053Z,1.50
2023-04-25T13:16:23.794Z,1.50
2023-04-25T13:18:50.491Z,1.52
2023-04-25T13:21:17.211Z,1.40
2023-04-25T13:23:44.170Z,1.50
2023-04-25T13:26:11.303Z,1.58
2023-04-25T13:28:37.952Z,1.30
2023-04-25T13:31:04.607Z,1.30
2023-04-25T13:33:31.270Z,1.98
2023-04-25T13:35:58.238Z,1.17
2023-04-25T13:38:26.693Z,1.20
2023-04-25T13:40:54.373Z,1.35
2023-04-25T13:43:22.951Z,1.30
2023-04-25T13:45:50.830Z,1.40
2023-04-25T13:48:17.595Z,1.38
2023-04-25T13:50:44.313Z,1.20
2023-04-25T13:53:10.916Z,2.00
2023-04-25T13:55:37.941Z,2.20
2023-04-25T13:58:11.295Z,2.10
2023-04-25T14:00:40.005Z,2.47
2023-04-25T14:03:09.009Z,2.22
2023-04-25T14:05:40.123Z,1.95
2023-04-25T14:08:10.149Z,1.80
2023-04-25T14:10:37.527Z,1.60
2023-04-25T14:13:08.290Z,1.90
2023-04-25T14:15:36.241Z,2.00
2023-04-25T14:18:03.131Z,1.63
2023-04-25T14:20:30.799Z,1.52
2023-04-25T14:22:59.097Z,1.58
2023-04-25T14:25:26.444Z,1.70
2023-04-25T14:27:53.122Z,1.85
2023-04-25T14:30:21.427Z,1.60
2023-04-25T14:32:51.957Z,1.60
2023-04-25T14:35:19.433Z,1.70
2023-04-25T14:37:46.143Z,1.63
2023-04-25T14:40:14.206Z,1.60
2023-04-25T14:42:41.339Z,1.70
2023-04-25T14:45:09.780Z,1.63
2023-04-25T14:47:38.444Z,1.75
2023-04-25T14:50:06.346Z,1.88
2023-04-25T14:52:33.024Z,1.73
2023-04-25T14:55:01.523Z,1.63
2023-04-25T14:57:28.231Z,1.65
2023-04-25T14:59:54.869Z,1.80
2023-04-25T15:02:21.523Z,1.83
2023-04-25T15:04:48.308Z,1.52
2023-04-25T15:07:16.418Z,1.73
2023-04-25T15:09:45.006Z,1.92
2023-04-25T15:12:12.219Z,2.00
2023-04-25T15:14:38.840Z,1.80
2023-04-25T15:17:05.520Z,1.73
2023-04-25T15:19:32.243Z,1.83
2023-04-25T15:22:02.309Z,1.52
2023-04-25T15:24:30.066Z,1.40
2023-04-25T15:26:56.671Z,1.70
2023-04-25T15:29:23.315Z,1.60
2023-04-25T15:31:50.058Z,1.50
2023-04-25T15:34:16.752Z,1.70
2023-04-25T15:36:43.409Z,1.60
2023-04-25T15:39:10.146Z,1.48
2023-04-25T15:41:37.840Z,1.50
2023-04-25T15:44:04.468Z,1.55
2023-04-25T15:46:31.469Z,1.23
2023-04-25T15:48:58.183Z,1.02
2023-04-25T15:51:24.914Z,1.08
2023-04-25T15:53:51.787Z,1.40
2023-04-25T15:56:18.967Z,1.63
2023-04-25T15:58:45.748Z,1.30
2023-04-25T16:01:12.505Z,1.30
2023-04-25T16:03:39.743Z,1.27
2023-04-25T16:06:06.665Z,1.65
2023-04-25T16:08:35.899Z,1.60
2023-04-25T16:11:03.483Z,1.42
2023-04-25T16:13:30.296Z,1.60
2023-04-25T16:15:57.051Z,1.40
2023-04-25T16:18:23.858Z,1.73
2023-04-25T16:20:50.627Z,1.30
2023-04-25T16:23:18.105Z,1.80
2023-04-25T16:25:44.971Z,1.67
2023-04-25T16:28:11.702Z,1.63
2023-04-25T16:30:38.462Z,1.70
2023-04-25T16:33:05.209Z,1.65
2023-04-25T16:35:32.588Z,1.45
2023-04-25T16:37:59.524Z,1.83
2023-04-25T16:40:26.880Z,1.80
2023-04-25T16:42:53.493Z,1.50
2023-04-25T16:45:21.246Z,1.83
2023-04-25T16:47:47.874Z,1.80
2023-04-25T16:50:15.274Z,1.70
2023-04-25T16:52:44.421Z,1.75
2023-04-25T16:55:11.501Z,1.77
2023-04-25T16:57:38.310Z,1.63
2023-04-25T17:00:09.842Z,1.80
2023-04-25T17:02:36.866Z,1.90
2023-04-25T17:05:03.748Z,1.70
2023-04-25T17:07:31.183Z,1.70
2023-04-25T17:09:57.867Z,1.42
2023-04-25T17:12:24.542Z,1.67
2023-04-25T17:14:51.235Z,1.30
2023-04-25T17:17:18.915Z,2.05
2023-04-25T17:19:46.633Z,1.60
2023-04-25T17:22:13.467Z,1.63
2023-04-25T17:24:40.764Z,1.70
2023-04-25T17:27:07.491Z,1.88
2023-04-25T17:29:35.135Z,2.20
2023-04-25T17:32:02.175Z,2.25
2023-04-25T17:34:29.132Z,1.60
2023-04-25T17:36:55.934Z,1.50
2023-04-25T17:39:22.577Z,1.50
2023-04-25T17:41:49.227Z,1.30
2023-04-25T17:44:15.867Z,1.70
2023-04-25T17:46:42.556Z,1.80
2023-04-25T17:49:09.283Z,1.80
2023-04-25T17:51:35.953Z,1.80
2023-04-25T17:54:02.567Z,1.60
2023-04-25T17:56:29.342Z,1.42
2023-04-25T17:58:56.299Z,1.50
2023-04-25T18:01:23.293Z,1.50
2023-04-25T18:03:50.595Z,1.73
2023-04-25T18:06:18.122Z,1.33
2023-04-25T18:08:45.144Z,1.40
2023-04-25T18:11:12.351Z,1.55
2023-04-25T18:13:40.754Z,1.27
2023-04-25T18:16:07.853Z,1.40
2023-04-25T18:18:36.226Z,1.70
2023-04-25T18:21:05.369Z,1.70
2023-04-25T18:23:34.311Z,1.70
2023-04-25T18:26:02.692Z,1.73
2023-04-25T18:28:29.486Z,1.50
2023-04-25T18:30:56.826Z,1.50
2023-04-25T18:33:23.804Z,2.22
2023-04-25T18:35:58.714Z,2.20
2023-04-25T18:41:02.742Z,1.98
2023-04-25T18:43:37.121Z,1.90
2023-04-25T18:46:03.793Z,2.25
2023-04-25T18:48:30.791Z,2.17
2023-04-25T18:50:57.813Z,2.10
2023-04-25T18:53:24.439Z,1.70
2023-04-25T18:55:51.234Z,1.80
2023-04-25T18:58:17.848Z,2.22
2023-04-25T19:00:44.528Z,2.47
2023-04-25T19:03:11.772Z,2.10
2023-04-25T19:05:38.920Z,2.00
2023-04-25T19:08:05.883Z,2.10
2023-04-25T19:10:32.500Z,1.70
2023-04-25T19:12:59.135Z,2.25
2023-04-25T19:15:25.985Z,2.88
2023-04-25T19:17:52.680Z,3.53
2023-04-25T19:20:20.822Z,3.22
2023-04-25T19:22:48.345Z,2.10
2023-04-25T19:25:15.123Z,2.10
2023-04-25T19:27:42.345Z,2.38
2023-04-25T19:30:10.182Z,2.33
2023-04-25T19:32:38.403Z,2.85
2023-04-25T19:35:05.598Z,2.40
2023-04-25T19:37:32.270Z,2.88
2023-04-25T19:39:58.934Z,2.80
2023-04-25T19:42:26.085Z,3.00
2023-04-25T19:44:53.276Z,3.25
2023-04-25T19:47:19.872Z,3.13
2023-04-25T19:49:47.007Z,2.78
2023-04-25T19:52:17.366Z,3.10
2023-04-25T19:54:45.601Z,3.60
2023-04-25T19:57:13.378Z,2.92
2023-04-25T19:59:40.624Z,3.65
2023-04-25T20:02:10.751Z,3.42
2023-04-25T20:04:38.700Z,2.95
2023-04-25T20:07:05.384Z,2.92
2023-04-25T20:09:32.026Z,3.72
2023-04-25T20:11:58.632Z,3.17
2023-04-25T20:14:26.207Z,3.33
2023-04-25T20:16:53.240Z,3.58
2023-04-25T20:19:20.172Z,3.40
2023-04-25T20:21:47.260Z,3.50
2023-04-25T20:24:13.907Z,2.95
2023-04-25T20:26:40.613Z,3.55
2023-04-25T20:29:07.889Z,3.60
2023-04-25T20:31:36.759Z,4.15
2023-04-25T20:34:03.878Z,3.15
2023-04-25T20:36:31.951Z,3.17
2023-04-25T20:38:58.658Z,3.65
2023-04-25T20:41:25.410Z,3.42
2023-04-25T20:43:53.351Z,3.55
2023-04-25T20:46:20.511Z,3.70
2023-04-25T20:48:47.308Z,3.55
2023-04-25T20:51:14.248Z,3.70
2023-04-25T20:53:40.909Z,3.97
2023-04-25T20:56:07.533Z,3.55
2023-04-25T20:58:34.171Z,3.83
2023-04-25T21:01:01.426Z,4.13
2023-04-25T21:03:28.285Z,4.47
2023-04-25T21:05:55.111Z,3.60
2023-04-25T21:08:21.760Z,4.00
2023-04-25T21:10:48.831Z,3.75
2023-04-25T21:13:15.702Z,3.80
2023-04-25T21:15:42.375Z,4.00
2023-04-25T21:18:09.083Z,3.75
2023-04-25T21:20:36.162Z,3.50
2023-04-25T21:23:03.092Z,3.60
2023-04-25T21:25:31.747Z,3.35
2023-04-25T21:27:59.073Z,3.80
2023-04-25T21:30:26.219Z,4.07
2023-04-25T21:32:53.497Z,3.92
2023-04-25T21:35:22.098Z,4.65
2023-04-25T21:37:49.411Z,4.28
2023-04-25T21:40:16.099Z,3.70
2023-04-25T21:42:44.707Z,3.92
2023-04-25T21:45:12.302Z,4.65
2023-04-25T21:47:39.289Z,4.03
2023-04-25T21:50:06.875Z,3.67
2023-04-25T21:52:33.772Z,3.88
2023-04-25T21:55:00.380Z,3.53
2023-04-25T21:57:27.045Z,3.78
2023-04-25T21:59:53.643Z,3.47
2023-04-25T22:02:20.548Z,3.70
2023-04-25T22:04:48.086Z,3.33
2023-04-25T22:07:15.626Z,3.70
2023-04-25T22:09:53.906Z,3.60
2023-04-25T22:12:22.792Z,2.35
2023-04-25T22:14:49.503Z,3.40
2023-04-25T22:17:16.174Z,3.83
2023-04-25T22:19:43.333Z,4.00
2023-04-25T22:22:10.021Z,3.78
2023-04-25T22:24:36.692Z,4.10
2023-04-25T22:27:03.390Z,3.90
2023-04-25T22:29:30.026Z,3.47
2023-04-25T22:31:56.786Z,3.55
2023-04-25T22:34:23.608Z,3.42
2023-04-25T22:36:50.330Z,2.63
2023-04-25T22:39:17.044Z,3.28
2023-04-25T22:41:43.710Z,3.90
2023-04-25T22:44:11.267Z,3.33
2023-04-25T22:46:38.069Z,3.60
2023-04-25T22:49:05.152Z,3.42
2023-04-25T22:51:32.268Z,3.30
2023-04-25T22:53:59.267Z,4.07
2023-04-25T22:56:27.037Z,3.95
2023-04-25T22:58:53.938Z,4.38
2023-04-25T23:01:21.213Z,3.28
2023-04-25T23:03:48.557Z,4.13
2023-04-25T23:06:15.347Z,4.30
2023-04-25T23:08:42.007Z,3.80
2023-04-25T23:11:08.959Z,3.42
2023-04-25T23:13:39.002Z,4.25
2023-04-25T23:16:09.773Z,3.50
2023-04-25T23:18:37.400Z,3.60
2023-04-25T23:21:04.958Z,3.55
2023-04-25T23:23:31.751Z,4.05
2023-04-25T23:25:58.409Z,3.50
2023-04-25T23:28:25.065Z,3.78
2023-04-25T23:30:52.474Z,3.28
2023-04-25T23:33:19.178Z,4.00
2023-04-25T23:35:46.081Z,3.40
2023-04-25T23:38:13.744Z,3.33
2023-04-25T23:40:40.382Z,3.72
2023-04-25T23:43:06.990Z,3.55
2023-04-25T23:45:34.652Z,3.60
2023-04-25T23:48:02.930Z,3.60
2023-04-25T23:50:29.625Z,3.47
2023-04-25T23:52:56.280Z,3.40
2023-04-25T23:55:22.954Z,3.45
2023-04-25T23:57:49.580Z,3.60
